createdAt,value
2019-04-29T00:02:11.229Z,83.84
2019-04-29T00:04:39.503Z,83.80
2019-04-29T00:07:08.804Z,83.99
2019-04-29T00:09:37.161Z,84.10
2019-04-29T00:12:05.545Z,84.18
2019-04-29T00:14:35.084Z,84.16
2019-04-29T00:17:14.284Z,84.04
2019-04-29T00:19:44.529Z,83.94
2019-04-29T00:22:13.096Z,83.75
2019-04-29T00:24:41.377Z,83.65
2019-04-29T00:27:09.687Z,83.82
2019-04-29T00:29:37.988Z,83.74
2019-04-29T00:32:06.671Z,83.72
2019-04-29T00:34:35.292Z,83.95
2019-04-29T00:37:21.362Z,84.02
2019-04-29T00:40:07.470Z,84.17
2019-04-29T00:42:37.441Z,84.08
2019-04-29T00:45:07.089Z,84.13
2019-04-29T00:47:35.692Z,84.16
2019-04-29T00:50:06.158Z,83.97
2019-04-29T00:52:34.450Z,83.82
2019-04-29T00:55:13.563Z,83.87
2019-04-29T00:57:42.212Z,83.93
2019-04-29T01:00:12.518Z,84.15
2019-04-29T01:02:41.224Z,84.14
2019-04-29T01:05:09.599Z,83.95
2019-04-29T01:07:37.888Z,83.85
2019-04-29T01:10:06.616Z,83.90
2019-04-29T01:12:35.496Z,83.93
2019-04-29T01:15:05.895Z,84.12
2019-04-29T01:17:34.459Z,84.26
2019-04-29T01:20:02.753Z,84.24
2019-04-29T01:22:31.512Z,84.30
2019-04-29T01:25:00.103Z,84.52
2019-04-29T01:27:30.049Z,84.59
2019-04-29T01:29:59.737Z,84.48
2019-04-29T01:32:28.062Z,84.58
2019-04-29T01:34:56.515Z,84.70
2019-04-29T01:37:26.627Z,84.69
2019-04-29T01:39:59.579Z,84.57
2019-04-29T01:42:29.523Z,84.52
2019-04-29T01:44:57.811Z,84.61
2019-04-29T01:47:26.132Z,84.73
2019-04-29T01:49:54.423Z,84.77
2019-04-29T01:52:22.739Z,84.62
2019-04-29T01:54:51.289Z,84.54
2019-04-29T01:57:19.889Z,84.56
2019-04-29T01:59:48.456Z,84.61
2019-04-29T02:02:16.760Z,84.87
2019-04-29T02:04:45.071Z,84.92
2019-04-29T02:07:13.441Z,84.91
2019-04-29T02:09:58.171Z,84.77
2019-04-29T02:12:26.457Z,84.73
2019-04-29T02:14:54.771Z,84.87
2019-04-29T02:17:23.049Z,84.69
2019-04-29T02:19:51.350Z,84.48
2019-04-29T02:22:33.121Z,84.47
2019-04-29T02:25:03.070Z,84.55
2019-04-29T02:27:31.637Z,84.67
2019-04-29T02:29:59.931Z,84.79
2019-04-29T02:32:28.322Z,84.59
2019-04-29T02:34:56.640Z,84.61
2019-04-29T02:37:26.569Z,84.38
2019-04-29T02:39:59.269Z,84.18
2019-04-29T02:42:45.656Z,84.21
2019-04-29T02:45:24.704Z,84.44
2019-04-29T02:47:53.001Z,84.56
2019-04-29T02:50:21.286Z,84.63
2019-04-29T02:52:49.599Z,84.62
2019-04-29T02:55:19.546Z,84.79
2019-04-29T02:57:55.295Z,85.02
2019-04-29T03:00:31.131Z,85.14
2019-04-29T03:03:13.359Z,85.19
2019-04-29T03:05:43.672Z,85.14
2019-04-29T03:08:12.038Z,85.37
2019-04-29T03:10:40.742Z,85.31
2019-04-29T03:13:09.277Z,85.32
2019-04-29T03:15:40.657Z,85.38
2019-04-29T03:18:08.994Z,85.28
2019-04-29T03:20:53.685Z,85.06
2019-04-29T03:23:23.633Z,85.23
2019-04-29T03:25:52.010Z,85.40
2019-04-29T03:28:20.584Z,85.38
2019-04-29T03:30:49.160Z,85.57
2019-04-29T03:33:17.464Z,85.53
2019-04-29T03:35:45.787Z,85.39
2019-04-29T03:38:14.100Z,85.26
2019-04-29T03:40:42.673Z,85.35
2019-04-29T03:43:10.965Z,85.33
2019-04-29T03:45:39.528Z,85.29
2019-04-29T03:48:08.136Z,85.16
2019-04-29T03:50:36.412Z,85.17
2019-04-29T03:53:04.805Z,85.29
2019-04-29T03:55:39.676Z,85.34
2019-04-29T03:58:03.110Z,85.37
2019-04-29T04:00:31.401Z,85.49
2019-04-29T04:03:01.350Z,85.47
2019-04-29T04:05:34.270Z,85.36
2019-04-29T04:08:13.617Z,85.37
2019-04-29T04:10:41.883Z,85.50
2019-04-29T04:13:10.204Z,85.49
2019-04-29T04:15:38.502Z,85.46
2019-04-29T04:18:23.308Z,85.44
2019-04-29T04:20:51.646Z,85.45
2019-04-29T04:23:19.898Z,85.48
2019-04-29T04:25:48.195Z,85.54
2019-04-29T04:28:16.592Z,85.55
2019-04-29T04:30:44.972Z,85.49
2019-04-29T04:33:13.542Z,85.37
2019-04-29T04:35:41.845Z,85.22
2019-04-29T04:38:10.502Z,85.11
2019-04-29T04:40:46.304Z,85.02
2019-04-29T04:43:14.601Z,84.93
2019-04-29T04:45:42.892Z,84.91
2019-04-29T04:48:11.482Z,84.95
2019-04-29T04:50:39.776Z,84.82
2019-04-29T04:53:08.065Z,84.81
2019-04-29T04:55:38.011Z,84.89
2019-04-29T04:58:06.342Z,84.86
2019-04-29T05:00:36.312Z,84.72
2019-04-29T05:03:04.766Z,84.68
2019-04-29T05:05:33.039Z,84.69
2019-04-29T05:08:01.361Z,84.65
2019-04-29T05:10:29.660Z,84.53
2019-04-29T05:12:58.024Z,84.18
2019-04-29T05:15:26.299Z,84.08
2019-04-29T05:17:54.604Z,83.99
2019-04-29T05:20:23.151Z,83.72
2019-04-29T05:22:59.978Z,83.35
2019-04-29T05:25:31.670Z,82.75
2019-04-29T05:28:00.135Z,82.37
2019-04-29T05:30:28.504Z,81.71
2019-04-29T05:32:56.824Z,81.44
2019-04-29T05:35:26.755Z,81.27
2019-04-29T05:37:59.508Z,81.00
2019-04-29T05:40:47.727Z,80.89
2019-04-29T05:43:17.701Z,80.65
2019-04-29T05:46:07.277Z,80.29
2019-04-29T05:48:34.219Z,79.88
2019-04-29T05:51:09.874Z,79.94
2019-04-29T05:53:42.544Z,79.77
2019-04-29T05:56:11.112Z,79.54
2019-04-29T05:58:39.658Z,79.30
2019-04-29T06:01:09.921Z,79.36
2019-04-29T06:03:39.777Z,79.40
2019-04-29T06:06:08.225Z,79.50
2019-04-29T06:08:39.251Z,79.59
2019-04-29T06:11:06.808Z,79.62
2019-04-29T06:13:35.351Z,79.52
2019-04-29T06:16:03.969Z,79.44
2019-04-29T06:18:32.258Z,79.19
2019-04-29T06:21:08.697Z,79.17
2019-04-29T06:23:30.639Z,78.93
2019-04-29T06:25:58.939Z,78.85
2019-04-29T06:28:28.221Z,78.70
2019-04-29T06:30:56.641Z,78.58
2019-04-29T06:33:29.063Z,78.50
2019-04-29T06:35:57.066Z,77.90
2019-04-29T06:38:25.478Z,77.39
2019-04-29T06:40:53.755Z,77.20
2019-04-29T06:43:24.672Z,76.85
2019-04-29T06:45:52.204Z,76.67
2019-04-29T06:48:20.767Z,76.14
2019-04-29T06:50:49.832Z,75.53
2019-04-29T06:53:21.214Z,75.63
2019-04-29T06:55:48.280Z,75.53
2019-04-29T06:58:16.957Z,75.27
2019-04-29T07:00:45.231Z,74.87
2019-04-29T07:03:13.909Z,75.21
2019-04-29T07:05:42.340Z,75.61
2019-04-29T07:08:11.082Z,75.48
2019-04-29T07:10:39.403Z,74.86
2019-04-29T07:13:07.681Z,75.33
2019-04-29T07:15:36.068Z,75.54
2019-04-29T07:18:05.100Z,75.92
2019-04-29T07:20:37.074Z,75.78
2019-04-29T07:23:03.435Z,75.21
2019-04-29T07:25:31.728Z,75.15
2019-04-29T07:28:00.028Z,75.12
2019-04-29T07:30:29.524Z,74.84
2019-04-29T07:32:57.906Z,74.69
2019-04-29T07:35:26.230Z,74.73
2019-04-29T07:37:54.616Z,74.38
2019-04-29T07:40:22.978Z,73.61
2019-04-29T07:42:51.295Z,73.31
2019-04-29T07:45:28.014Z,73.32
2019-04-29T07:47:56.833Z,73.23
2019-04-29T07:50:26.795Z,73.13
2019-04-29T07:52:55.442Z,73.12
2019-04-29T07:55:25.965Z,72.00
2019-04-29T07:57:54.121Z,71.65
2019-04-29T08:00:35.457Z,71.18
2019-04-29T08:03:06.826Z,71.15
2019-04-29T08:05:35.287Z,71.24
2019-04-29T08:08:04.240Z,71.27
2019-04-29T08:10:32.522Z,71.34
2019-04-29T08:13:01.002Z,71.74
2019-04-29T08:15:31.836Z,71.68
2019-04-29T08:18:06.316Z,71.44
2019-04-29T08:20:29.696Z,71.73
2019-04-29T08:22:58.343Z,70.96
2019-04-29T08:25:28.051Z,70.70
2019-04-29T08:27:56.340Z,70.12
2019-04-29T08:30:24.656Z,69.16
2019-04-29T08:32:53.306Z,69.10
2019-04-29T08:35:21.613Z,67.94
2019-04-29T08:37:49.909Z,68.65
2019-04-29T08:40:18.218Z,67.24
2019-04-29T08:43:04.490Z,66.64
2019-04-29T08:45:34.845Z,64.81
2019-04-29T08:48:04.720Z,65.30
2019-04-29T08:50:33.348Z,64.31
2019-04-29T08:53:01.632Z,64.97
2019-04-29T08:55:30.955Z,65.93
2019-04-29T08:57:59.969Z,64.87
2019-04-29T09:00:28.249Z,64.34
2019-04-29T09:02:56.548Z,64.34
2019-04-29T09:05:24.841Z,64.12
2019-04-29T09:07:57.285Z,63.72
2019-04-29T09:10:23.286Z,62.89
2019-04-29T09:12:51.578Z,62.85
2019-04-29T09:15:20.074Z,62.72
2019-04-29T09:17:48.326Z,63.01
2019-04-29T09:20:19.011Z,61.46
2019-04-29T09:22:48.964Z,61.09
2019-04-29T09:25:28.039Z,60.90
2019-04-29T09:27:58.142Z,60.11
2019-04-29T09:30:26.613Z,60.13
2019-04-29T09:32:54.912Z,60.03
2019-04-29T09:35:23.520Z,59.83
2019-04-29T09:37:53.892Z,59.17
2019-04-29T09:40:23.491Z,58.05
2019-04-29T09:42:59.364Z,58.18
2019-04-29T09:45:45.508Z,58.12
2019-04-29T09:48:13.829Z,57.83
2019-04-29T09:50:42.123Z,58.27
2019-04-29T09:53:10.440Z,58.57
2019-04-29T09:55:39.981Z,58.42
2019-04-29T09:58:09.118Z,57.88
2019-04-29T10:00:58.296Z,58.01
2019-04-29T10:03:45.425Z,56.30
2019-04-29T10:06:21.057Z,55.79
2019-04-29T10:08:49.651Z,55.16
2019-04-29T10:11:17.942Z,55.04
2019-04-29T10:13:46.312Z,53.97
2019-04-29T10:16:19.238Z,54.36
2019-04-29T10:18:54.960Z,54.14
2019-04-29T10:21:24.151Z,54.69
2019-04-29T10:23:52.638Z,53.54
2019-04-29T10:26:21.116Z,52.56
2019-04-29T10:28:59.782Z,52.64
2019-04-29T10:31:28.198Z,52.66
2019-04-29T10:33:56.604Z,52.77
2019-04-29T10:36:26.269Z,51.87
2019-04-29T10:38:56.804Z,50.88
2019-04-29T10:41:30.053Z,51.62
2019-04-29T10:44:00.011Z,51.12
2019-04-29T10:46:46.182Z,50.32
2019-04-29T10:49:16.433Z,50.23
2019-04-29T10:51:45.013Z,50.41
2019-04-29T10:54:14.336Z,50.33
2019-04-29T10:56:42.782Z,51.40
2019-04-29T10:59:11.629Z,51.14
2019-04-29T11:02:00.668Z,51.60
2019-04-29T11:04:20.414Z,50.68
2019-04-29T11:06:49.113Z,51.25
2019-04-29T11:09:31.188Z,51.24
2019-04-29T11:11:59.476Z,51.32
2019-04-29T11:14:27.801Z,51.91
2019-04-29T11:16:56.326Z,51.34
2019-04-29T11:19:24.919Z,51.25
2019-04-29T11:21:53.312Z,50.67
2019-04-29T11:24:25.740Z,51.29
2019-04-29T11:26:55.779Z,50.39
2019-04-29T11:29:27.388Z,51.50
2019-04-29T11:31:55.939Z,51.25
2019-04-29T11:34:33.384Z,50.15
2019-04-29T11:37:01.768Z,51.08
2019-04-29T11:39:30.065Z,50.97
2019-04-29T11:41:59.798Z,50.52
2019-04-29T11:44:31.856Z,49.81
2019-04-29T11:46:59.719Z,50.15
2019-04-29T11:49:29.724Z,49.21
2019-04-29T11:52:09.099Z,49.44
2019-04-29T11:54:28.760Z,50.26
2019-04-29T11:56:57.069Z,49.57
2019-04-29T11:59:36.144Z,48.33
2019-04-29T12:02:24.763Z,48.28
2019-04-29T12:04:59.206Z,47.43
2019-04-29T12:07:32.548Z,47.59
2019-04-29T12:10:02.244Z,47.47
2019-04-29T12:12:28.752Z,46.75
2019-04-29T12:14:58.679Z,47.60
2019-04-29T12:17:28.629Z,48.09
2019-04-29T12:19:58.537Z,48.34
2019-04-29T12:22:30.740Z,48.73
2019-04-29T12:24:57.176Z,49.32
2019-04-29T12:27:28.960Z,49.54
2019-04-29T12:29:59.462Z,49.42
2019-04-29T12:32:27.840Z,49.88
2019-04-29T12:35:06.648Z,50.55
2019-04-29T12:37:39.273Z,49.96
2019-04-29T12:40:16.221Z,50.36
2019-04-29T12:42:58.321Z,50.69
2019-04-29T12:45:28.289Z,51.31
2019-04-29T12:47:56.577Z,51.38
2019-04-29T12:50:24.947Z,51.06
2019-04-29T12:52:53.221Z,50.63
2019-04-29T12:55:49.074Z,49.54
2019-04-29T12:58:11.751Z,49.01
2019-04-29T13:00:47.524Z,48.81
2019-04-29T13:03:17.697Z,48.02
2019-04-29T13:05:58.414Z,47.99
2019-04-29T13:08:39.854Z,48.84
2019-04-29T13:11:09.689Z,49.08
2019-04-29T13:13:37.968Z,50.18
2019-04-29T13:16:20.087Z,50.24
2019-04-29T13:18:48.968Z,50.66
2019-04-29T13:21:18.764Z,50.08
2019-04-29T13:23:59.519Z,49.66
2019-04-29T13:26:27.812Z,50.27
2019-04-29T13:29:00.450Z,49.98
2019-04-29T13:31:20.137Z,50.24
2019-04-29T13:33:51.015Z,50.23
2019-04-29T13:36:19.637Z,50.57
2019-04-29T13:38:48.573Z,50.99
2019-04-29T13:41:23.820Z,51.01
2019-04-29T13:43:47.362Z,50.18
2019-04-29T13:46:17.292Z,49.61
2019-04-29T13:49:12.831Z,49.37
2019-04-29T13:51:39.475Z,49.30
2019-04-29T13:54:07.762Z,48.13
2019-04-29T13:56:54.551Z,48.35
2019-04-29T13:59:10.728Z,49.17
2019-04-29T14:01:57.768Z,48.97
2019-04-29T14:04:13.837Z,48.69
2019-04-29T14:06:56.139Z,49.18
2019-04-29T14:09:14.303Z,50.58
2019-04-29T14:11:42.577Z,50.33
2019-04-29T14:14:10.878Z,49.65
2019-04-29T14:16:43.063Z,50.12
2019-04-29T14:19:09.358Z,50.31
2019-04-29T14:21:37.655Z,48.23
2019-04-29T14:24:06.307Z,49.39
2019-04-29T14:26:36.965Z,49.98
2019-04-29T14:29:05.255Z,50.48
2019-04-29T14:31:33.539Z,50.97
2019-04-29T14:34:21.796Z,51.56
2019-04-29T14:36:50.099Z,50.96
2019-04-29T14:39:36.131Z,51.09
2019-04-29T14:41:51.027Z,51.97
2019-04-29T14:44:33.677Z,52.53
2019-04-29T14:47:06.272Z,52.55
2019-04-29T14:49:39.741Z,52.46
2019-04-29T14:52:08.281Z,52.23
2019-04-29T14:54:36.867Z,52.88
2019-04-29T14:57:09.105Z,52.88
2019-04-29T14:59:37.315Z,53.13
2019-04-29T15:02:11.919Z,52.69
2019-04-29T15:04:39.312Z,52.64
2019-04-29T15:07:07.714Z,52.95
2019-04-29T15:09:46.367Z,53.47
2019-04-29T15:12:17.269Z,54.69
2019-04-29T15:14:47.693Z,55.63
2019-04-29T15:17:17.734Z,56.43
2019-04-29T15:19:55.760Z,57.04
2019-04-29T15:22:30.246Z,57.33
2019-04-29T15:24:58.526Z,58.17
2019-04-29T15:27:26.913Z,58.84
2019-04-29T15:29:55.199Z,59.31
2019-04-29T15:32:23.916Z,59.46
2019-04-29T15:34:52.229Z,59.85
2019-04-29T15:37:20.513Z,59.78
2019-04-29T15:39:48.802Z,59.89
2019-04-29T15:42:17.342Z,60.05
2019-04-29T15:44:46.030Z,60.58
2019-04-29T15:47:14.619Z,61.27
2019-04-29T15:49:42.905Z,63.07
2019-04-29T15:52:11.191Z,63.91
2019-04-29T15:54:39.846Z,65.41
2019-04-29T15:57:10.749Z,66.77
2019-04-29T15:59:48.449Z,67.75
2019-04-29T16:02:09.273Z,68.60
2019-04-29T16:04:39.383Z,69.62
2019-04-29T16:07:25.238Z,69.75
2019-04-29T16:10:14.471Z,69.92
2019-04-29T16:12:45.355Z,70.36
2019-04-29T16:15:13.628Z,70.52
2019-04-29T16:17:42.001Z,70.84
2019-04-29T16:20:10.275Z,70.84
2019-04-29T16:22:39.353Z,70.85
2019-04-29T16:25:11.023Z,71.05
2019-04-29T16:27:41.593Z,70.78
2019-04-29T16:30:08.524Z,71.10
2019-04-29T16:32:38.471Z,71.50
2019-04-29T16:35:07.154Z,71.56
2019-04-29T16:37:35.504Z,71.14
2019-04-29T16:40:07.551Z,71.45
2019-04-29T16:42:43.661Z,71.69
2019-04-29T16:45:14.216Z,71.66
2019-04-29T16:47:47.554Z,71.50
2019-04-29T16:50:12.323Z,71.60
2019-04-29T16:52:44.332Z,71.62
2019-04-29T16:55:11.379Z,71.21
2019-04-29T16:57:39.661Z,71.38
2019-04-29T17:00:13.689Z,71.71
2019-04-29T17:02:40.422Z,71.43
2019-04-29T17:05:09.135Z,71.35
2019-04-29T17:07:37.491Z,71.59
2019-04-29T17:10:10.869Z,71.38
2019-04-29T17:12:40.794Z,71.48
2019-04-29T17:15:23.573Z,71.58
2019-04-29T17:17:39.424Z,71.79
2019-04-29T17:20:08.279Z,70.82
2019-04-29T17:22:43.246Z,71.04
2019-04-29T17:25:08.454Z,71.10
2019-04-29T17:27:47.387Z,71.37
2019-04-29T17:30:38.290Z,71.15
2019-04-29T17:33:26.470Z,70.94
2019-04-29T17:35:47.905Z,71.04
2019-04-29T17:38:17.353Z,71.32
2019-04-29T17:40:51.244Z,71.46
2019-04-29T17:43:17.689Z,71.32
2019-04-29T17:45:47.621Z,71.34
2019-04-29T17:48:33.782Z,71.30
2019-04-29T17:51:03.919Z,71.29
2019-04-29T17:53:40.012Z,71.44
2019-04-29T17:56:14.953Z,71.63
2019-04-29T17:58:54.733Z,71.80
2019-04-29T18:01:29.018Z,71.96
2019-04-29T18:04:11.816Z,72.04
2019-04-29T18:06:40.315Z,71.67
2019-04-29T18:09:31.834Z,71.86
2019-04-29T18:12:01.266Z,72.01
2019-04-29T18:14:36.570Z,71.99
2019-04-29T18:16:59.713Z,72.57
2019-04-29T18:19:36.184Z,72.80
2019-04-29T18:22:07.320Z,72.70
2019-04-29T18:24:37.497Z,73.30
2019-04-29T18:27:10.264Z,73.55
2019-04-29T18:29:41.607Z,73.88
2019-04-29T18:32:08.928Z,74.22
2019-04-29T18:34:38.002Z,74.20
2019-04-29T18:37:06.682Z,74.39
2019-04-29T18:39:35.302Z,74.78
2019-04-29T18:42:06.711Z,74.97
2019-04-29T18:44:33.629Z,75.00
2019-04-29T18:47:01.947Z,75.31
2019-04-29T18:49:30.250Z,75.41
2019-04-29T18:52:02.153Z,75.66
2019-04-29T18:54:28.560Z,75.65
2019-04-29T18:56:56.891Z,75.79
2019-04-29T18:59:30.706Z,75.89
2019-04-29T19:01:55.470Z,76.42
2019-04-29T19:04:31.272Z,76.58
2019-04-29T19:07:02.424Z,76.70
2019-04-29T19:09:32.153Z,76.41
2019-04-29T19:12:01.642Z,76.33
2019-04-29T19:14:29.939Z,76.51
2019-04-29T19:17:01.300Z,77.03
2019-04-29T19:19:30.835Z,77.28
2019-04-29T19:22:00.793Z,77.56
2019-04-29T19:24:31.507Z,77.67
2019-04-29T19:27:00.778Z,77.91
2019-04-29T19:29:29.499Z,77.64
2019-04-29T19:31:57.889Z,77.57
2019-04-29T19:34:26.276Z,77.70
2019-04-29T19:36:58.155Z,77.61
2019-04-29T19:39:25.524Z,77.65
2019-04-29T19:41:55.719Z,77.54
2019-04-29T19:44:26.488Z,77.21
2019-04-29T19:46:56.949Z,77.07
2019-04-29T19:49:25.780Z,76.91
2019-04-29T19:51:55.537Z,76.82
2019-04-29T19:54:28.365Z,76.84
2019-04-29T19:57:02.940Z,76.96
2019-04-29T19:59:26.103Z,76.98
2019-04-29T20:02:02.015Z,76.68
2019-04-29T20:04:32.002Z,76.86
2019-04-29T20:07:06.665Z,76.87
2019-04-29T20:09:31.644Z,76.66
2019-04-29T20:12:11.835Z,76.73
2019-04-29T20:14:33.673Z,77.00
2019-04-29T20:17:09.541Z,76.99
2019-04-29T20:19:40.581Z,76.86
2019-04-29T20:22:09.843Z,76.81
2019-04-29T20:24:38.709Z,76.99
2019-04-29T20:27:07.527Z,76.93
2019-04-29T20:29:38.370Z,76.54
2019-04-29T20:32:07.885Z,76.83
2019-04-29T20:34:36.507Z,76.95
2019-04-29T20:37:05.967Z,77.03
2019-04-29T20:39:35.687Z,77.30
2019-04-29T20:42:06.392Z,77.37
2019-04-29T20:44:36.530Z,77.40
2019-04-29T20:47:19.105Z,77.42
2019-04-29T20:49:37.228Z,77.43
2019-04-29T20:52:06.502Z,77.54
2019-04-29T20:54:36.022Z,77.52
2019-04-29T20:57:06.971Z,77.37
2019-04-29T20:59:35.852Z,77.27
2019-04-29T21:02:12.579Z,77.48
2019-04-29T21:04:45.716Z,77.83
2019-04-29T21:07:07.030Z,78.05
2019-04-29T21:09:35.717Z,78.25
2019-04-29T21:12:22.609Z,78.19
2019-04-29T21:14:52.543Z,78.21
2019-04-29T21:17:30.835Z,78.55
2019-04-29T21:19:50.863Z,78.67
2019-04-29T21:22:23.439Z,78.89
2019-04-29T21:24:53.709Z,79.00
2019-04-29T21:27:22.551Z,79.01
2019-04-29T21:29:49.914Z,78.93
2019-04-29T21:32:19.895Z,79.03
2019-04-29T21:34:50.099Z,78.94
2019-04-29T21:37:32.250Z,79.03
2019-04-29T21:40:14.607Z,79.04
2019-04-29T21:42:47.121Z,79.17
2019-04-29T21:45:15.528Z,79.14
2019-04-29T21:47:52.712Z,79.28
2019-04-29T21:50:15.392Z,79.27
2019-04-29T21:52:44.743Z,79.25
2019-04-29T21:55:15.938Z,79.29
2019-04-29T21:57:44.706Z,79.47
2019-04-29T22:00:15.658Z,79.50
2019-04-29T22:02:46.683Z,79.63
2019-04-29T22:05:18.428Z,79.59
2019-04-29T22:07:47.482Z,79.62
2019-04-29T22:10:15.376Z,79.42
2019-04-29T22:12:43.622Z,79.49
2019-04-29T22:15:13.557Z,79.60
2019-04-29T22:17:53.785Z,79.56
2019-04-29T22:20:15.854Z,79.64
2019-04-29T22:22:45.250Z,79.72
2019-04-29T22:25:15.751Z,79.61
2019-04-29T22:27:45.127Z,80.01
2019-04-29T22:30:18.494Z,80.07
2019-04-29T22:32:47.153Z,80.04
2019-04-29T22:35:16.580Z,80.02
2019-04-29T22:37:45.402Z,80.27
2019-04-29T22:40:15.469Z,80.33
2019-04-29T22:42:47.462Z,80.54
2019-04-29T22:45:16.039Z,80.83
2019-04-29T22:47:44.363Z,80.88
2019-04-29T22:50:13.608Z,80.92
2019-04-29T22:52:42.204Z,80.97
2019-04-29T22:55:11.096Z,80.91
2019-04-29T22:57:39.395Z,81.10
2019-04-29T23:00:08.422Z,81.19
2019-04-29T23:02:36.702Z,81.26
2019-04-29T23:05:07.983Z,81.57
2019-04-29T23:07:37.744Z,81.64
2019-04-29T23:10:07.337Z,81.62
2019-04-29T23:12:35.628Z,81.80
2019-04-29T23:15:07.814Z,82.21
2019-04-29T23:17:36.121Z,82.38
2019-04-29T23:20:09.244Z,82.90
2019-04-29T23:22:45.128Z,83.14
2019-04-29T23:25:21.727Z,83.10
2019-04-29T23:27:52.201Z,83.28
2019-04-29T23:30:20.396Z,83.41
2019-04-29T23:32:48.692Z,83.71
2019-04-29T23:35:16.983Z,83.66
2019-04-29T23:37:45.767Z,83.96
2019-04-29T23:40:15.187Z,84.13
2019-04-29T23:42:47.483Z,84.28
2019-04-29T23:45:20.790Z,84.61
2019-04-29T23:47:46.980Z,84.65
2019-04-29T23:50:18.747Z,84.57
2019-04-29T23:52:47.929Z,84.62
2019-04-29T23:55:15.940Z,84.95
2019-04-29T23:57:46.095Z,85.28
